METAR UND TAF INFORMATION
METAR FOR GCTS
ADDS - METARS form results

(2038 UTC 22 September 2019)
Data provider http://aviationweather.gov/metar/data/
 
METAR text: GCTS 222030Z 08015KT 7000 DZ BKN020 23/22 Q1018 NOSIG
Conditions at: GCTS (TENERIFE SUR/REI, ES) observed 2030 UTC 22 September 2019
Temperature: 23.0°C (73°F)
Dewpoint: 22.0°C (72°F) [RH = 94%]
Pressure (altimeter): 30.06 inches Hg (1018.0 mb)
Winds: from the E (80 degrees) at 17 MPH (15 knots; 7.7 m/s)
Visibility: 4 miles ( 7 km)
Ceiling: 2000 feet AGL
Clouds: broken clouds at 2000 feet AGL
Weather: DZ  (moderate drizzle)

METAR text: GCTS 222013Z 07014KT 7000 -RA BKN020 23/22 Q1018 NOSIG
Conditions at: GCTS (TENERIFE SUR/REI, ES) observed 2013 UTC 22 September 2019
Temperature: 23.0°C (73°F)
Dewpoint: 22.0°C (72°F) [RH = 94%]
Pressure (altimeter): 30.06 inches Hg (1018.0 mb)
Winds: from the ENE (70 degrees) at 16 MPH (14 knots; 7.2 m/s)
Visibility: 4 miles ( 7 km)
Ceiling: 2000 feet AGL
Clouds: broken clouds at 2000 feet AGL
Weather: -RA  (light rain)

METAR text: GCTS 222000Z 08013KT 9999 BKN020 23/22 Q1018 NOSIG
Conditions at: GCTS (TENERIFE SUR/REI, ES) observed 2000 UTC 22 September 2019
Temperature: 23.0°C (73°F)
Dewpoint: 22.0°C (72°F) [RH = 94%]
Pressure (altimeter): 30.06 inches Hg (1018.0 mb)
Winds: from the E (80 degrees) at 15 MPH (13 knots; 6.7 m/s)
Visibility: 6 or more miles (10+ km)
Ceiling: 2000 feet AGL
Clouds: broken clouds at 2000 feet AGL
Weather: no significant weather observed at this time

Forecast for: GCTS (TENERIFE SUR/REI, ES)
Text: TAF GCTS 222000Z 2221/2321 06014KT 9999 SCT030 TX26/2314Z TN21/2305Z
Forecast period: 2100 UTC 22 September 2019 to 2100 UTC 23 September 2019
Forecast type: FROM: standard forecast or significant change
Winds: from the ENE (60 degrees) at 16 MPH (14 knots; 7.2 m/s)
Visibility: 6 or more miles 10+ km)
Ceiling: at least 12,000 feet AGL
Clouds: scattered clouds at 3000 feet AGL
Weather: no significant weather forecast for this period

 FLUGHAFENKARTE

 RUNWAY INFORMATION
Runway 08 Runway length 10499 ft Runway width 148 ft
Runway elevation 187 ft Runway displaced threshold 0 ft Runway heading 69
Runway 26 Runway length 10499 ft Runway width 148 ft
Runway elevation 209 ft Runway displaced threshold 0 ft Runway heading 249

 AIRPORT FREQUENCIES
Type APP Name APP Frequency 120.3 MHZ
Type ATIS Name ATIS Frequency 118.675 MHZ
Type GND Name GND Frequency 121.9 MHZ
Type TWR Name TWR Frequency 119 MHZ

 AIRPORT NEAR NAVIGATION AIDS
Type NDB Name Tenerife Sur Frequency 317 KHZ
Type VOR-DME Name Tenerife Sur Frequency 116400 KHZ



Powered by Virtual Airlines Manager [v2.6.2]